sensor_id;sensor_type;location;lat;lon;timestamp;P1;durP1;ratioP1;P2;durP2;ratioP2
5813;SDS011;2933;52.302;8.134;2023-06-24T00:04:05;4.90;;;3.30;;
5813;SDS011;2933;52.302;8.134;2023-06-24T00:09:06;3.23;;;3.03;;
5813;SDS011;2933;52.302;8.134;2023-06-24T00:14:08;3.43;;;3.10;;
5813;SDS011;2933;52.302;8.134;2023-06-24T00:19:12;7.00;;;3.17;;
5813;SDS011;2933;52.302;8.134;2023-06-24T00:24:13;4.10;;;3.80;;
5813;SDS011;2933;52.302;8.134;2023-06-24T00:29:16;4.33;;;4.03;;
5813;SDS011;2933;52.302;8.134;2023-06-24T00:34:19;4.20;;;3.80;;
5813;SDS011;2933;52.302;8.134;2023-06-24T00:39:21;7.57;;;4.00;;
5813;SDS011;2933;52.302;8.134;2023-06-24T00:44:23;6.27;;;4.03;;
5813;SDS011;2933;52.302;8.134;2023-06-24T00:49:27;5.20;;;3.87;;
5813;SDS011;2933;52.302;8.134;2023-06-24T00:54:28;3.67;;;3.37;;
5813;SDS011;2933;52.302;8.134;2023-06-24T00:59:31;4.43;;;4.03;;
5813;SDS011;2933;52.302;8.134;2023-06-24T01:04:34;6.20;;;4.60;;
5813;SDS011;2933;52.302;8.134;2023-06-24T01:09:35;9.73;;;4.03;;
5813;SDS011;2933;52.302;8.134;2023-06-24T01:14:37;4.57;;;4.13;;
5813;SDS011;2933;52.302;8.134;2023-06-24T01:19:54;4.37;;;4.07;;
5813;SDS011;2933;52.302;8.134;2023-06-24T01:25:08;3.80;;;3.53;;
5813;SDS011;2933;52.302;8.134;2023-06-24T01:30:34;4.40;;;4.10;;
5813;SDS011;2933;52.302;8.134;2023-06-24T01:35:48;4.20;;;3.87;;
5813;SDS011;2933;52.302;8.134;2023-06-24T01:40:50;9.60;;;3.77;;
5813;SDS011;2933;52.302;8.134;2023-06-24T01:45:53;3.57;;;3.30;;
5813;SDS011;2933;52.302;8.134;2023-06-24T01:50:59;3.43;;;3.23;;
5813;SDS011;2933;52.302;8.134;2023-06-24T01:56:04;4.50;;;4.10;;
5813;SDS011;2933;52.302;8.134;2023-06-24T02:01:08;4.10;;;3.80;;
5813;SDS011;2933;52.302;8.134;2023-06-24T02:06:13;4.60;;;3.53;;
5813;SDS011;2933;52.302;8.134;2023-06-24T02:11:15;4.10;;;3.70;;
5813;SDS011;2933;52.302;8.134;2023-06-24T02:16:18;3.77;;;3.40;;
5813;SDS011;2933;52.302;8.134;2023-06-24T02:21:23;5.30;;;3.80;;
5813;SDS011;2933;52.302;8.134;2023-06-24T02:26:26;4.20;;;3.90;;
5813;SDS011;2933;52.302;8.134;2023-06-24T02:31:28;3.80;;;3.60;;
5813;SDS011;2933;52.302;8.134;2023-06-24T02:36:31;5.40;;;3.83;;
5813;SDS011;2933;52.302;8.134;2023-06-24T02:41:32;5.33;;;3.77;;
5813;SDS011;2933;52.302;8.134;2023-06-24T02:46:34;4.33;;;3.97;;
5813;SDS011;2933;52.302;8.134;2023-06-24T02:51:39;5.60;;;4.27;;
5813;SDS011;2933;52.302;8.134;2023-06-24T02:56:43;3.70;;;3.40;;
5813;SDS011;2933;52.302;8.134;2023-06-24T03:01:45;4.03;;;3.73;;
5813;SDS011;2933;52.302;8.134;2023-06-24T03:06:48;4.57;;;4.13;;
5813;SDS011;2933;52.302;8.134;2023-06-24T03:11:51;3.50;;;3.30;;
5813;SDS011;2933;52.302;8.134;2023-06-24T03:16:53;4.13;;;3.73;;
5813;SDS011;2933;52.302;8.134;2023-06-24T03:21:56;4.63;;;3.90;;
5813;SDS011;2933;52.302;8.134;2023-06-24T03:26:57;4.30;;;3.73;;
5813;SDS011;2933;52.302;8.134;2023-06-24T03:31:59;4.37;;;3.97;;
5813;SDS011;2933;52.302;8.134;2023-06-24T03:37:02;4.10;;;3.70;;
5813;SDS011;2933;52.302;8.134;2023-06-24T03:42:05;4.73;;;3.70;;
5813;SDS011;2933;52.302;8.134;2023-06-24T03:47:06;4.60;;;4.20;;
5813;SDS011;2933;52.302;8.134;2023-06-24T03:52:09;6.10;;;4.40;;
5813;SDS011;2933;52.302;8.134;2023-06-24T03:57:11;5.10;;;4.60;;
5813;SDS011;2933;52.302;8.134;2023-06-24T04:02:12;6.10;;;4.70;;
5813;SDS011;2933;52.302;8.134;2023-06-24T04:07:15;7.43;;;4.03;;
5813;SDS011;2933;52.302;8.134;2023-06-24T04:12:27;9.50;;;4.77;;
5813;SDS011;2933;52.302;8.134;2023-06-24T04:17:28;8.37;;;4.30;;
5813;SDS011;2933;52.302;8.134;2023-06-24T04:22:31;6.70;;;5.13;;
5813;SDS011;2933;52.302;8.134;2023-06-24T04:27:33;7.20;;;4.70;;
5813;SDS011;2933;52.302;8.134;2023-06-24T04:32:35;7.03;;;4.50;;
5813;SDS011;2933;52.302;8.134;2023-06-24T04:37:38;6.03;;;4.83;;
5813;SDS011;2933;52.302;8.134;2023-06-24T04:42:40;10.33;;;5.67;;
5813;SDS011;2933;52.302;8.134;2023-06-24T04:47:41;6.50;;;4.83;;
5813;SDS011;2933;52.302;8.134;2023-06-24T04:52:44;11.23;;;5.50;;
5813;SDS011;2933;52.302;8.134;2023-06-24T04:57:46;5.47;;;4.97;;
5813;SDS011;2933;52.302;8.134;2023-06-24T05:02:48;8.07;;;7.30;;
5813;SDS011;2933;52.302;8.134;2023-06-24T05:07:51;7.07;;;4.83;;
5813;SDS011;2933;52.302;8.134;2023-06-24T05:12:52;7.80;;;4.70;;
5813;SDS011;2933;52.302;8.134;2023-06-24T05:17:55;13.23;;;5.47;;
5813;SDS011;2933;52.302;8.134;2023-06-24T05:22:58;8.87;;;5.10;;
5813;SDS011;2933;52.302;8.134;2023-06-24T05:27:59;5.83;;;5.23;;
5813;SDS011;2933;52.302;8.134;2023-06-24T05:33:01;10.93;;;5.30;;
5813;SDS011;2933;52.302;8.134;2023-06-24T05:38:03;7.10;;;5.23;;
5813;SDS011;2933;52.302;8.134;2023-06-24T05:43:05;7.70;;;4.73;;
5813;SDS011;2933;52.302;8.134;2023-06-24T05:48:07;9.43;;;5.50;;
5813;SDS011;2933;52.302;8.134;2023-06-24T05:53:09;6.70;;;5.27;;
5813;SDS011;2933;52.302;8.134;2023-06-24T05:58:11;7.83;;;5.77;;
5813;SDS011;2933;52.302;8.134;2023-06-24T06:03:12;8.80;;;4.70;;
5813;SDS011;2933;52.302;8.134;2023-06-24T06:08:15;6.10;;;4.87;;
5813;SDS011;2933;52.302;8.134;2023-06-24T06:13:17;5.60;;;5.07;;
5813;SDS011;2933;52.302;8.134;2023-06-24T06:18:18;6.87;;;4.80;;
5813;SDS011;2933;52.302;8.134;2023-06-24T06:23:23;9.93;;;4.73;;
5813;SDS011;2933;52.302;8.134;2023-06-24T06:28:26;9.80;;;5.00;;
5813;SDS011;2933;52.302;8.134;2023-06-24T06:33:27;6.60;;;4.90;;
5813;SDS011;2933;52.302;8.134;2023-06-24T06:38:31;9.07;;;3.97;;
5813;SDS011;2933;52.302;8.134;2023-06-24T06:43:33;8.20;;;4.30;;
5813;SDS011;2933;52.302;8.134;2023-06-24T06:48:35;7.40;;;4.13;;
5813;SDS011;2933;52.302;8.134;2023-06-24T06:53:37;4.20;;;3.83;;
5813;SDS011;2933;52.302;8.134;2023-06-24T06:58:39;5.33;;;4.80;;
5813;SDS011;2933;52.302;8.134;2023-06-24T07:03:40;6.37;;;3.50;;
5813;SDS011;2933;52.302;8.134;2023-06-24T07:08:43;9.53;;;4.53;;
5813;SDS011;2933;52.302;8.134;2023-06-24T07:13:45;4.07;;;3.77;;
5813;SDS011;2933;52.302;8.134;2023-06-24T07:18:46;4.77;;;4.37;;
5813;SDS011;2933;52.302;8.134;2023-06-24T07:23:49;5.27;;;4.40;;
5813;SDS011;2933;52.302;8.134;2023-06-24T07:28:51;6.70;;;4.30;;
5813;SDS011;2933;52.302;8.134;2023-06-24T07:33:53;8.10;;;5.07;;
5813;SDS011;2933;52.302;8.134;2023-06-24T07:38:56;4.53;;;4.23;;
5813;SDS011;2933;52.302;8.134;2023-06-24T07:43:57;5.00;;;4.20;;
5813;SDS011;2933;52.302;8.134;2023-06-24T07:48:59;4.50;;;4.10;;
5813;SDS011;2933;52.302;8.134;2023-06-24T07:54:02;5.63;;;4.20;;
5813;SDS011;2933;52.302;8.134;2023-06-24T07:59:03;8.97;;;4.73;;
5813;SDS011;2933;52.302;8.134;2023-06-24T08:04:04;4.50;;;4.10;;
5813;SDS011;2933;52.302;8.134;2023-06-24T08:09:08;10.30;;;4.50;;
5813;SDS011;2933;52.302;8.134;2023-06-24T08:14:10;4.23;;;3.77;;
5813;SDS011;2933;52.302;8.134;2023-06-24T08:19:11;5.63;;;4.57;;
5813;SDS011;2933;52.302;8.134;2023-06-24T08:24:15;3.83;;;3.53;;
5813;SDS011;2933;52.302;8.134;2023-06-24T08:29:16;4.40;;;4.10;;
5813;SDS011;2933;52.302;8.134;2023-06-24T08:34:18;3.63;;;3.43;;
5813;SDS011;2933;52.302;8.134;2023-06-24T08:39:20;3.97;;;3.57;;
5813;SDS011;2933;52.302;8.134;2023-06-24T08:44:22;4.00;;;3.70;;
5813;SDS011;2933;52.302;8.134;2023-06-24T08:49:26;3.47;;;3.20;;
5813;SDS011;2933;52.302;8.134;2023-06-24T08:54:32;4.17;;;3.87;;
5813;SDS011;2933;52.302;8.134;2023-06-24T08:59:36;5.43;;;4.60;;
5813;SDS011;2933;52.302;8.134;2023-06-24T09:04:38;4.47;;;4.07;;
5813;SDS011;2933;52.302;8.134;2023-06-24T09:09:45;6.90;;;4.60;;
5813;SDS011;2933;52.302;8.134;2023-06-24T09:14:50;5.30;;;4.50;;
5813;SDS011;2933;52.302;8.134;2023-06-24T09:19:52;7.00;;;4.80;;
5813;SDS011;2933;52.302;8.134;2023-06-24T09:24:55;3.90;;;3.60;;
5813;SDS011;2933;52.302;8.134;2023-06-24T09:29:56;7.30;;;3.60;;
5813;SDS011;2933;52.302;8.134;2023-06-24T09:34:57;4.73;;;3.50;;
5813;SDS011;2933;52.302;8.134;2023-06-24T09:40:00;14.40;;;4.87;;
5813;SDS011;2933;52.302;8.134;2023-06-24T09:45:05;4.40;;;4.00;;
5813;SDS011;2933;52.302;8.134;2023-06-24T09:50:07;3.97;;;3.73;;
5813;SDS011;2933;52.302;8.134;2023-06-24T09:55:10;4.67;;;4.27;;
5813;SDS011;2933;52.302;8.134;2023-06-24T10:00:14;4.00;;;3.70;;
5813;SDS011;2933;52.302;8.134;2023-06-24T10:05:17;5.30;;;4.00;;
5813;SDS011;2933;52.302;8.134;2023-06-24T10:10:20;3.37;;;3.17;;
5813;SDS011;2933;52.302;8.134;2023-06-24T10:15:22;4.90;;;4.00;;
5813;SDS011;2933;52.302;8.134;2023-06-24T10:20:24;9.90;;;4.70;;
5813;SDS011;2933;52.302;8.134;2023-06-24T10:25:28;6.33;;;4.10;;
5813;SDS011;2933;52.302;8.134;2023-06-24T10:30:37;4.23;;;3.30;;
5813;SDS011;2933;52.302;8.134;2023-06-24T10:35:41;3.93;;;3.63;;
5813;SDS011;2933;52.302;8.134;2023-06-24T10:40:45;6.80;;;4.87;;
5813;SDS011;2933;52.302;8.134;2023-06-24T10:45:50;5.67;;;4.47;;
5813;SDS011;2933;52.302;8.134;2023-06-24T10:50:52;6.60;;;4.87;;
5813;SDS011;2933;52.302;8.134;2023-06-24T10:55:57;8.33;;;4.93;;
5813;SDS011;2933;52.302;8.134;2023-06-24T11:01:06;5.23;;;4.73;;
5813;SDS011;2933;52.302;8.134;2023-06-24T11:06:08;7.13;;;4.80;;
5813;SDS011;2933;52.302;8.134;2023-06-24T11:11:19;5.00;;;4.60;;
5813;SDS011;2933;52.302;8.134;2023-06-24T11:16:22;6.70;;;4.73;;
5813;SDS011;2933;52.302;8.134;2023-06-24T11:21:27;9.30;;;4.97;;
5813;SDS011;2933;52.302;8.134;2023-06-24T11:26:31;9.43;;;4.97;;
5813;SDS011;2933;52.302;8.134;2023-06-24T11:31:33;5.33;;;4.80;;
5813;SDS011;2933;52.302;8.134;2023-06-24T11:36:35;9.53;;;5.80;;
5813;SDS011;2933;52.302;8.134;2023-06-24T11:41:38;5.20;;;4.80;;
5813;SDS011;2933;52.302;8.134;2023-06-24T11:46:40;4.80;;;4.40;;
5813;SDS011;2933;52.302;8.134;2023-06-24T11:51:45;4.90;;;4.40;;
5813;SDS011;2933;52.302;8.134;2023-06-24T11:56:51;4.33;;;3.93;;
5813;SDS011;2933;52.302;8.134;2023-06-24T12:01:53;6.17;;;5.67;;
5813;SDS011;2933;52.302;8.134;2023-06-24T12:06:55;5.33;;;4.73;;
5813;SDS011;2933;52.302;8.134;2023-06-24T12:11:58;4.90;;;4.50;;
5813;SDS011;2933;52.302;8.134;2023-06-24T12:17:00;6.23;;;5.20;;
5813;SDS011;2933;52.302;8.134;2023-06-24T12:22:02;5.47;;;4.97;;
5813;SDS011;2933;52.302;8.134;2023-06-24T12:27:05;4.90;;;4.50;;
5813;SDS011;2933;52.302;8.134;2023-06-24T12:32:07;5.90;;;4.97;;
5813;SDS011;2933;52.302;8.134;2023-06-24T12:37:09;5.33;;;4.87;;
5813;SDS011;2933;52.302;8.134;2023-06-24T12:42:12;5.40;;;4.90;;
5813;SDS011;2933;52.302;8.134;2023-06-24T12:47:13;6.43;;;4.37;;
5813;SDS011;2933;52.302;8.134;2023-06-24T12:52:15;5.73;;;5.10;;
5813;SDS011;2933;52.302;8.134;2023-06-24T12:57:18;5.13;;;4.67;;
5813;SDS011;2933;52.302;8.134;2023-06-24T13:02:20;5.23;;;4.80;;
5813;SDS011;2933;52.302;8.134;2023-06-24T13:07:21;5.33;;;4.83;;
5813;SDS011;2933;52.302;8.134;2023-06-24T13:12:24;4.97;;;4.57;;
5813;SDS011;2933;52.302;8.134;2023-06-24T13:17:25;5.03;;;4.53;;
5813;SDS011;2933;52.302;8.134;2023-06-24T13:22:27;6.20;;;4.63;;
5813;SDS011;2933;52.302;8.134;2023-06-24T13:27:30;5.77;;;5.17;;
5813;SDS011;2933;52.302;8.134;2023-06-24T13:32:31;6.50;;;5.80;;
5813;SDS011;2933;52.302;8.134;2023-06-24T13:37:33;11.63;;;5.53;;
5813;SDS011;2933;52.302;8.134;2023-06-24T13:42:36;5.10;;;4.67;;
5813;SDS011;2933;52.302;8.134;2023-06-24T13:47:37;11.30;;;4.87;;
5813;SDS011;2933;52.302;8.134;2023-06-24T13:52:39;26.13;;;10.50;;
5813;SDS011;2933;52.302;8.134;2023-06-24T13:57:42;6.40;;;5.80;;
5813;SDS011;2933;52.302;8.134;2023-06-24T14:02:43;6.03;;;5.43;;
5813;SDS011;2933;52.302;8.134;2023-06-24T14:07:45;12.40;;;6.43;;
5813;SDS011;2933;52.302;8.134;2023-06-24T14:12:48;6.60;;;5.70;;
5813;SDS011;2933;52.302;8.134;2023-06-24T14:17:49;5.20;;;4.80;;
5813;SDS011;2933;52.302;8.134;2023-06-24T14:22:51;5.73;;;5.33;;
5813;SDS011;2933;52.302;8.134;2023-06-24T14:27:54;6.13;;;5.63;;
5813;SDS011;2933;52.302;8.134;2023-06-24T14:32:55;5.30;;;5.00;;
5813;SDS011;2933;52.302;8.134;2023-06-24T14:37:57;5.17;;;4.77;;
5813;SDS011;2933;52.302;8.134;2023-06-24T14:43:00;6.67;;;4.63;;
5813;SDS011;2933;52.302;8.134;2023-06-24T14:48:01;5.20;;;4.80;;
5813;SDS011;2933;52.302;8.134;2023-06-24T14:53:03;4.80;;;4.37;;
5813;SDS011;2933;52.302;8.134;2023-06-24T14:58:06;6.33;;;4.50;;
5813;SDS011;2933;52.302;8.134;2023-06-24T15:03:07;5.17;;;4.67;;
5813;SDS011;2933;52.302;8.134;2023-06-24T15:08:09;6.30;;;4.80;;
5813;SDS011;2933;52.302;8.134;2023-06-24T15:13:12;7.27;;;4.87;;
5813;SDS011;2933;52.302;8.134;2023-06-24T15:18:14;6.03;;;4.97;;
5813;SDS011;2933;52.302;8.134;2023-06-24T15:23:15;5.73;;;5.10;;
5813;SDS011;2933;52.302;8.134;2023-06-24T15:28:18;10.87;;;4.63;;
5813;SDS011;2933;52.302;8.134;2023-06-24T15:33:20;4.77;;;4.30;;
5813;SDS011;2933;52.302;8.134;2023-06-24T15:38:21;4.73;;;4.33;;
5813;SDS011;2933;52.302;8.134;2023-06-24T15:43:24;6.37;;;4.30;;
5813;SDS011;2933;52.302;8.134;2023-06-24T15:48:26;5.70;;;4.47;;
5813;SDS011;2933;52.302;8.134;2023-06-24T15:53:27;5.60;;;4.90;;
5813;SDS011;2933;52.302;8.134;2023-06-24T15:58:30;5.00;;;4.50;;
5813;SDS011;2933;52.302;8.134;2023-06-24T16:03:32;5.60;;;5.10;;
5813;SDS011;2933;52.302;8.134;2023-06-24T16:08:33;4.83;;;4.43;;
5813;SDS011;2933;52.302;8.134;2023-06-24T16:13:36;8.03;;;4.37;;
5813;SDS011;2933;52.302;8.134;2023-06-24T16:18:38;4.30;;;4.00;;
5813;SDS011;2933;52.302;8.134;2023-06-24T16:23:39;6.33;;;4.50;;
5813;SDS011;2933;52.302;8.134;2023-06-24T16:28:42;4.93;;;4.50;;
5813;SDS011;2933;52.302;8.134;2023-06-24T16:33:44;5.10;;;4.60;;
5813;SDS011;2933;52.302;8.134;2023-06-24T16:38:45;7.20;;;4.97;;
5813;SDS011;2933;52.302;8.134;2023-06-24T16:43:48;6.00;;;4.30;;
5813;SDS011;2933;52.302;8.134;2023-06-24T16:48:50;5.50;;;4.80;;
5813;SDS011;2933;52.302;8.134;2023-06-24T16:53:51;6.40;;;4.83;;
5813;SDS011;2933;52.302;8.134;2023-06-24T16:58:54;5.33;;;4.43;;
5813;SDS011;2933;52.302;8.134;2023-06-24T17:03:55;4.10;;;3.80;;
5813;SDS011;2933;52.302;8.134;2023-06-24T17:08:57;4.27;;;3.97;;
5813;SDS011;2933;52.302;8.134;2023-06-24T17:14:00;4.37;;;4.07;;
5813;SDS011;2933;52.302;8.134;2023-06-24T17:19:01;4.60;;;4.30;;
5813;SDS011;2933;52.302;8.134;2023-06-24T17:24:03;4.47;;;4.17;;
5813;SDS011;2933;52.302;8.134;2023-06-24T17:29:06;4.73;;;4.33;;
5813;SDS011;2933;52.302;8.134;2023-06-24T17:34:08;3.67;;;3.50;;
5813;SDS011;2933;52.302;8.134;2023-06-24T17:39:09;4.17;;;3.70;;
5813;SDS011;2933;52.302;8.134;2023-06-24T17:44:12;4.20;;;3.90;;
5813;SDS011;2933;52.302;8.134;2023-06-24T17:49:14;10.23;;;7.03;;
5813;SDS011;2933;52.302;8.134;2023-06-24T17:54:15;6.80;;;4.30;;
5813;SDS011;2933;52.302;8.134;2023-06-24T17:59:18;8.00;;;5.97;;
5813;SDS011;2933;52.302;8.134;2023-06-24T18:04:20;5.93;;;5.20;;
5813;SDS011;2933;52.302;8.134;2023-06-24T18:09:21;5.93;;;4.80;;
5813;SDS011;2933;52.302;8.134;2023-06-24T18:14:24;4.97;;;4.57;;
5813;SDS011;2933;52.302;8.134;2023-06-24T18:19:26;6.70;;;5.93;;
5813;SDS011;2933;52.302;8.134;2023-06-24T18:24:27;5.40;;;4.30;;
5813;SDS011;2933;52.302;8.134;2023-06-24T18:29:30;4.40;;;3.97;;
5813;SDS011;2933;52.302;8.134;2023-06-24T18:34:32;4.70;;;4.20;;
5813;SDS011;2933;52.302;8.134;2023-06-24T18:39:33;6.90;;;4.63;;
5813;SDS011;2933;52.302;8.134;2023-06-24T18:44:36;5.50;;;5.00;;
5813;SDS011;2933;52.302;8.134;2023-06-24T18:49:38;5.90;;;5.27;;
5813;SDS011;2933;52.302;8.134;2023-06-24T18:54:41;5.33;;;4.83;;
5813;SDS011;2933;52.302;8.134;2023-06-24T18:59:44;5.33;;;4.87;;
5813;SDS011;2933;52.302;8.134;2023-06-24T19:04:45;8.30;;;4.83;;
5813;SDS011;2933;52.302;8.134;2023-06-24T19:09:47;6.40;;;5.40;;
5813;SDS011;2933;52.302;8.134;2023-06-24T19:14:50;5.30;;;4.80;;
5813;SDS011;2933;52.302;8.134;2023-06-24T19:19:51;5.77;;;4.77;;
5813;SDS011;2933;52.302;8.134;2023-06-24T19:24:53;5.10;;;4.67;;
5813;SDS011;2933;52.302;8.134;2023-06-24T19:29:55;5.13;;;4.63;;
5813;SDS011;2933;52.302;8.134;2023-06-24T19:34:57;5.30;;;4.73;;
5813;SDS011;2933;52.302;8.134;2023-06-24T19:40:00;5.50;;;4.83;;
5813;SDS011;2933;52.302;8.134;2023-06-24T19:45:04;5.23;;;4.87;;
5813;SDS011;2933;52.302;8.134;2023-06-24T19:50:07;6.03;;;5.50;;
5813;SDS011;2933;52.302;8.134;2023-06-24T19:55:09;5.30;;;4.90;;
5813;SDS011;2933;52.302;8.134;2023-06-24T20:00:13;4.67;;;4.37;;
5813;SDS011;2933;52.302;8.134;2023-06-24T20:05:15;5.47;;;4.80;;
5813;SDS011;2933;52.302;8.134;2023-06-24T20:10:16;5.80;;;5.30;;
5813;SDS011;2933;52.302;8.134;2023-06-24T20:15:19;5.50;;;5.00;;
5813;SDS011;2933;52.302;8.134;2023-06-24T20:20:21;5.33;;;4.90;;
5813;SDS011;2933;52.302;8.134;2023-06-24T20:25:22;5.93;;;5.30;;
5813;SDS011;2933;52.302;8.134;2023-06-24T20:30:25;5.97;;;5.47;;
5813;SDS011;2933;52.302;8.134;2023-06-24T20:35:27;6.33;;;5.70;;
5813;SDS011;2933;52.302;8.134;2023-06-24T20:40:28;7.83;;;5.70;;
5813;SDS011;2933;52.302;8.134;2023-06-24T20:45:31;6.40;;;5.80;;
5813;SDS011;2933;52.302;8.134;2023-06-24T20:50:32;5.70;;;5.20;;
5813;SDS011;2933;52.302;8.134;2023-06-24T20:55:34;6.97;;;5.93;;
5813;SDS011;2933;52.302;8.134;2023-06-24T21:00:38;6.23;;;5.63;;
5813;SDS011;2933;52.302;8.134;2023-06-24T21:05:40;9.33;;;6.40;;
5813;SDS011;2933;52.302;8.134;2023-06-24T21:10:41;6.03;;;5.33;;
5813;SDS011;2933;52.302;8.134;2023-06-24T21:15:44;6.70;;;6.10;;
5813;SDS011;2933;52.302;8.134;2023-06-24T21:20:46;6.77;;;5.90;;
5813;SDS011;2933;52.302;8.134;2023-06-24T21:25:47;7.00;;;6.30;;
5813;SDS011;2933;52.302;8.134;2023-06-24T21:30:52;6.60;;;5.80;;
5813;SDS011;2933;52.302;8.134;2023-06-24T21:35:53;7.70;;;7.00;;
5813;SDS011;2933;52.302;8.134;2023-06-24T21:40:55;6.77;;;6.10;;
5813;SDS011;2933;52.302;8.134;2023-06-24T21:45:57;9.03;;;6.57;;
5813;SDS011;2933;52.302;8.134;2023-06-24T21:50:59;7.23;;;5.80;;
5813;SDS011;2933;52.302;8.134;2023-06-24T21:56:01;7.20;;;6.50;;
5813;SDS011;2933;52.302;8.134;2023-06-24T22:01:04;9.10;;;6.80;;
5813;SDS011;2933;52.302;8.134;2023-06-24T22:06:05;7.40;;;6.60;;
5813;SDS011;2933;52.302;8.134;2023-06-24T22:11:07;7.80;;;7.13;;
5813;SDS011;2933;52.302;8.134;2023-06-24T22:16:09;9.73;;;7.50;;
5813;SDS011;2933;52.302;8.134;2023-06-24T22:21:12;7.87;;;7.00;;
5813;SDS011;2933;52.302;8.134;2023-06-24T22:26:13;8.67;;;7.80;;
5813;SDS011;2933;52.302;8.134;2023-06-24T22:31:16;9.13;;;8.03;;
5813;SDS011;2933;52.302;8.134;2023-06-24T22:36:18;10.87;;;7.70;;
5813;SDS011;2933;52.302;8.134;2023-06-24T22:41:19;11.57;;;8.03;;
5813;SDS011;2933;52.302;8.134;2023-06-24T22:46:22;11.70;;;9.40;;
5813;SDS011;2933;52.302;8.134;2023-06-24T22:51:24;10.77;;;9.00;;
5813;SDS011;2933;52.302;8.134;2023-06-24T22:56:25;9.77;;;8.77;;
5813;SDS011;2933;52.302;8.134;2023-06-24T23:01:28;10.10;;;8.47;;
5813;SDS011;2933;52.302;8.134;2023-06-24T23:06:30;11.93;;;9.07;;
5813;SDS011;2933;52.302;8.134;2023-06-24T23:11:32;9.43;;;8.43;;
5813;SDS011;2933;52.302;8.134;2023-06-24T23:16:36;12.50;;;8.40;;
5813;SDS011;2933;52.302;8.134;2023-06-24T23:21:38;10.37;;;8.73;;
5813;SDS011;2933;52.302;8.134;2023-06-24T23:26:40;10.00;;;9.00;;
5813;SDS011;2933;52.302;8.134;2023-06-24T23:31:52;11.77;;;9.97;;
5813;SDS011;2933;52.302;8.134;2023-06-24T23:36:53;9.80;;;8.80;;
5813;SDS011;2933;52.302;8.134;2023-06-24T23:41:55;12.70;;;8.40;;
5813;SDS011;2933;52.302;8.134;2023-06-24T23:47:00;11.07;;;8.67;;
5813;SDS011;2933;52.302;8.134;2023-06-24T23:52:02;14.50;;;9.70;;
5813;SDS011;2933;52.302;8.134;2023-06-24T23:57:05;13.20;;;9.10;;
